Relevés horaires Matro (Suisse)


Relevés horaires à Matro - Mercredi 09 Juill. 2014
Heure UTC1 Température [°C] Vent [km/h] Hum. [%] Pres.4 [hPa] Visi. [Km] Nébu. [octa] Préc.5 [mm] Cond.
2m. Res. Ros. Dir.2 Vit. Moy. Raf.3
23:00 3.5 -0.6 -1.9 NO 18.5 18.5 22.2 68 850(-1.0/3h) -- -- -- --
22:00 3.6 -0.2 -1.7 NNO 16.7 16.7 22.2 68 850(-0.4/3h) -- -- -- --
21:00 4.0 1.2 -1.8 NO 11.1 31.5 38.9 66 850(0.2/3h) -- -- -- --
20:00 4.1 0.4 -2.0 NO 16.7 25.9 35.2 64 850(0.1/3h) -- -- -- --
19:00 4.2 -0.4 -2.2 NO 24.1 31.5 38.9 63 850(-0.3/3h) -- -- -- --
18:00 4.7 -0.1 -2.5 NO 27.8 29.6 48.2 59 850(-0.1/3h) -- -- -- --
17:00 4.9 0.3 -2.1 NO 25.9 27.8 40.7 60 850(-0.1/3h) -- -- -- --
16:00 5.3 1.2 -1.8 NO 22.2 29.6 48.2 60 850(0.1/3h) -- -- -- --
15:00 5.3 0.6 -0.7 NNO 27.8 27.8 48.2 65 850(-0.2/3h) -- -- -- --
14:00 5.7 1.7 -1.2 NNO 22.2 22.2 35.2 61 850(0.0/3h) -- -- -- --
13:00 5.6 1.8 -1.9 NNO 20.4 24.1 38.9 58 850(0.1/3h) -- -- -- --
12:00 5.2 1.5 -0.4 NNO 18.5 25.9 40.7 67 850(0.3/3h) -- -- -- --
11:00 5.2 1.3 -0.3 NNO 20.4 22.2 35.2 68 850(0.4/3h) -- -- -- --
10:00 5.5 1.9 -1.0 NNO 18.5 20.4 35.2 63 850(0.3/3h) -- -- -- --
09:00 5.5 2.1 -0.3 NNO 16.7 25.9 40.7 66 850(0.2/3h) -- -- -- --
08:00 4.6 0.8 -0.8 NO 18.5 24.1 38.9 68 850(0.2/3h) -- -- -- --
07:00 3.9 -1 -1.4 NNO 25.9 25.9 40.7 68 850(0.2/3h) -- -- -- --
06:00 3.5 -1.1 -1.9 NO 22.2 38.9 53.7 68 850(0.3/3h) -- -- -- --
05:00 3.4 -1.8 -1.8 NO 27.8 29.6 38.9 69 850(-0.2/3h) -- -- -- --
04:00 3.2 -2.6 -1.4 NO 33.3 33.3 46.3 72 850(-0.3/3h) -- -- -- --
03:00 3.1 -2.2 -1.3 NO 27.8 38.9 53.7 73 850(-0.7/3h) -- -- -- --
02:00 3.5 -2 -1.5 NO 31.5 38.9 53.7 70 850(-0.8/3h) -- -- -- --
01:00 3.5 -1.7 -1.3 NNO 27.8 33.3 44.4 71 850(-0.8/3h) -- -- -- --
00:00 3.7 -2.1 -1.6 NO 35.2 50.0 66.7 68 850(-0.4/3h) -- -- -- --

1 Coordinated Universal Time. Actuellement il est 11:00 locale et 09:00 UTC.

2 Le vent souffle depuis la direction indiquée vers la direction oposée.

3 Les rafales max. sont disponible 40 min après l'heure du relevé.

4 Pour les stations d'altitude (plus de 600m) le géopotentiel du niveau le plus proche de la pression obligatoire est indiqué.

5 Les stations disposant d'un diffuseur peuvent indiquer "trace". Cela signifie que des précipitations ont touchés le sol mais que la quantité est inférieure à 0.1 mm.

Copyright

Les données affichées sur cette page sont la propriété exclusive de Météo Suisse.

Récapitulatif de la journée
Température [°C] Vent [km/h] Ensoleillement4 [h] Precipitations totale5 [mm] Pression [Hpa]
Min1 Max.2 Moy.3 Max. Min Max.
3.1 6.1 28.9 66.7 6 h 6 min 0 850.0 850.0

1 Température minimale relevée entre 18:00 UTC la veille et 18:00 UTC le jour donné.

2 Température maximale relevée entre 06:00 UTC le jour donné et 06:00 UTC le lendemain.

3 Vent moyen de la journée basé sur les relevés horaires.

4 Ensoleillement en heures relevé entre 06:00 UTC la veille et 06:00 UTC le jour donné.

5 Précipitations totales tombées entre 06:00 UTC la jour donné et 06:00 UTC le lendemain.

Graphiques horaires